Time;durP1;ratioP1;P1;durP2;ratioP2;P2;SDS_P1;SDS_P2;PMS_P1;PMS_P2;Temp;Humidity;BMP_temperature;BMP_pressure;BME280_temperature;BME280_humidity;BME280_pressure;Samples;Min_cycle;Max_cycle;Signal;HPM_P1;HPM_P2
2023/10/17 00:00:59;;;;;;;2.20;2.03;;;23.10;69.90;;;;;;5036866;28;20453;-85
2023/10/17 00:03:26;;;;;;;2.80;2.00;;;23.00;69.70;;;;;;5036836;28;20437;-85
2023/10/17 00:05:55;;;;;;;2.20;2.00;;;23.00;69.70;;;;;;5036775;28;20497;-87
2023/10/17 00:08:21;;;;;;;2.03;1.90;;;23.00;69.80;;;;;;5036725;28;20445;-85
2023/10/17 00:10:49;;;;;;;2.47;2.27;;;23.00;69.70;;;;;;5036402;28;20568;-85
2023/10/17 00:13:31;;;;;;;2.73;2.17;;;23.00;69.70;;;;;;5036542;28;20504;-87
2023/10/17 00:16:00;;;;;;;2.03;1.93;;;23.00;69.70;;;;;;5016848;28;20502;-85
2023/10/17 00:18:27;;;;;;;2.40;2.20;;;23.10;69.80;;;;;;5016489;28;20487;-86
2023/10/17 00:21:02;;;;;;;3.00;2.33;;;23.00;69.70;;;;;;5016718;28;20449;-86
2023/10/17 00:23:32;;;;;;;2.77;1.90;;;23.00;69.60;;;;;;5016888;28;20448;-88
2023/10/17 00:26:02;;;;;;;2.03;1.93;;;23.00;69.70;;;;;;5036696;28;20794;-85
2023/10/17 00:28:30;;;;;;;2.30;2.10;;;23.00;69.80;;;;;;5036435;28;20458;-85
2023/10/17 00:30:57;;;;;;;2.20;2.00;;;23.00;69.70;;;;;;5036426;28;20523;-85
2023/10/17 00:33:25;;;;;;;2.40;2.20;;;23.00;69.60;;;;;;5036124;28;20438;-82
2023/10/17 00:35:54;;;;;;;2.30;2.10;;;23.00;69.70;;;;;;5035901;28;20443;-83
2023/10/17 00:38:21;;;;;;;2.33;2.07;;;23.00;69.70;;;;;;5036243;28;20548;-82
2023/10/17 00:40:50;;;;;;;2.00;1.90;;;23.00;69.60;;;;;;5036173;28;20952;-85
2023/10/17 00:43:19;;;;;;;2.10;1.90;;;23.00;69.80;;;;;;5035977;28;20810;-85
2023/10/17 00:45:47;;;;;;;2.10;1.90;;;23.00;69.70;;;;;;5036203;28;20956;-85
2023/10/17 00:48:22;;;;;;;3.27;2.10;;;22.90;69.60;;;;;;5035788;28;20790;-85
2023/10/17 00:50:56;;;;;;;2.07;1.90;;;23.00;69.80;;;;;;5035655;28;20445;-85
2023/10/17 00:53:24;;;;;;;2.23;1.90;;;22.90;69.60;;;;;;5035531;28;20469;-85
2023/10/17 00:55:55;;;;;;;2.23;2.03;;;22.90;69.70;;;;;;5035842;28;20976;-85
2023/10/17 00:58:24;;;;;;;2.10;1.80;;;22.90;69.60;;;;;;5035593;28;20540;-86
2023/10/17 01:00:58;;;;;;;2.50;2.30;;;22.90;69.60;;;;;;5035840;28;20462;-85
2023/10/17 01:03:28;;;;;;;2.17;1.93;;;22.90;69.70;;;;;;5035255;28;20933;-85
2023/10/17 01:06:13;;;;;;;2.00;1.80;;;22.90;69.60;;;;;;5035839;28;20522;-85
2023/10/17 01:08:44;;;;;;;1.83;1.73;;;22.90;69.60;;;;;;5035840;28;20500;-85
2023/10/17 01:11:20;;;;;;;2.50;2.30;;;22.90;69.70;;;;;;5035111;28;20478;-85
2023/10/17 01:13:49;;;;;;;2.80;2.10;;;22.90;69.60;;;;;;5035599;28;20512;-85
2023/10/17 01:16:16;;;;;;;3.90;2.30;;;22.90;69.60;;;;;;5035569;28;20441;-85
2023/10/17 01:18:47;;;;;;;2.57;2.47;;;22.90;69.60;;;;;;5035777;28;20497;-85
2023/10/17 01:21:18;;;;;;;2.37;2.17;;;22.90;69.60;;;;;;5035173;28;20442;-86
2023/10/17 01:23:45;;;;;;;1.90;1.77;;;22.90;69.60;;;;;;5035215;28;20439;-85
2023/10/17 01:26:20;;;;;;;2.27;2.07;;;22.90;69.60;;;;;;5035267;28;20444;-85
2023/10/17 01:28:48;;;;;;;2.30;2.10;;;22.90;70.40;;;;;;5035159;28;20548;-85
2023/10/17 01:31:22;;;;;;;2.60;2.40;;;22.90;69.60;;;;;;5034966;28;21008;-85
2023/10/17 01:33:50;;;;;;;2.20;2.00;;;22.90;69.60;;;;;;5015347;28;20446;-86
2023/10/17 01:36:17;;;;;;;2.40;2.20;;;22.90;69.60;;;;;;5015111;28;20439;-85
2023/10/17 01:38:46;;;;;;;2.63;2.20;;;22.90;69.60;;;;;;5015017;28;20526;-85
2023/10/17 01:41:14;;;;;;;2.37;2.17;;;22.90;69.60;;;;;;5016222;28;20439;-85
2023/10/17 01:43:41;;;;;;;2.23;2.10;;;22.90;69.50;;;;;;5035038;28;20477;-89
2023/10/17 01:46:11;;;;;;;2.43;2.23;;;22.80;69.50;;;;;;5034745;28;20430;-85
2023/10/17 01:48:38;;;;;;;1.80;1.70;;;22.90;69.70;;;;;;5034914;28;20442;-85
2023/10/17 01:51:10;;;;;;;2.33;2.00;;;22.80;69.40;;;;;;5034646;28;20570;-85
2023/10/17 01:53:38;;;;;;;1.80;1.70;;;22.90;69.60;;;;;;5015097;28;20436;-85
2023/10/17 01:56:14;;;;;;;1.93;1.83;;;22.80;69.40;;;;;;5014832;28;20455;-85
2023/10/17 01:58:46;;;;;;;2.07;1.90;;;22.80;69.50;;;;;;5014689;28;20490;-85
2023/10/17 02:01:14;;;;;;;2.00;1.90;;;22.80;69.50;;;;;;5014902;28;20443;-85
2023/10/17 02:03:41;;;;;;;1.90;1.80;;;22.80;69.50;;;;;;5034303;28;20473;-85
2023/10/17 02:06:14;;;;;;;2.40;2.20;;;22.80;69.40;;;;;;5034769;28;20441;-85
2023/10/17 02:08:45;;;;;;;2.40;2.20;;;22.80;69.50;;;;;;5034248;28;20434;-85
2023/10/17 02:11:23;;;;;;;2.13;1.93;;;22.80;69.50;;;;;;5034490;28;20480;-85
2023/10/17 02:13:56;;;;;;;1.87;1.77;;;22.80;69.30;;;;;;5014647;28;20446;-85
2023/10/17 02:16:23;;;;;;;2.80;2.10;;;22.80;70.30;;;;;;5014496;28;20533;-88
2023/10/17 02:18:51;;;;;;;2.23;2.03;;;22.80;69.50;;;;;;5014482;28;20478;-85
2023/10/17 02:21:21;;;;;;;2.40;2.20;;;22.80;69.50;;;;;;5027810;28;20480;-86
2023/10/17 02:23:50;;;;;;;2.30;2.13;;;22.80;69.50;;;;;;5034018;28;20470;-85
2023/10/17 02:26:21;;;;;;;2.00;1.80;;;22.80;69.50;;;;;;5034330;28;20445;-85
2023/10/17 02:28:50;;;;;;;2.30;2.10;;;22.80;69.50;;;;;;5033938;28;20516;-85
2023/10/17 02:31:22;;;;;;;2.20;2.03;;;22.80;70.40;;;;;;5033595;28;20447;-85
2023/10/17 02:33:49;;;;;;;2.20;2.00;;;22.80;69.50;;;;;;5034027;28;20529;-85
2023/10/17 02:36:17;;;;;;;1.93;1.83;;;22.80;69.50;;;;;;5033899;28;20947;-86
2023/10/17 02:38:44;;;;;;;2.23;2.03;;;22.80;69.50;;;;;;5034124;28;20485;-85
2023/10/17 02:41:18;;;;;;;2.30;2.10;;;22.80;69.50;;;;;;5033474;28;20929;-85
2023/10/17 02:43:45;;;;;;;3.80;2.40;;;22.80;69.50;;;;;;5033146;28;20446;-85
2023/10/17 02:46:13;;;;;;;3.50;2.30;;;22.80;69.50;;;;;;5032986;28;20453;-85
2023/10/17 02:48:42;;;;;;;2.30;2.10;;;22.80;69.40;;;;;;5033587;28;20442;-85
2023/10/17 02:53:56;;;;;;;2.33;2.13;;;22.80;69.50;;;;;;5033353;28;20450;-85
2023/10/17 02:56:24;;;;;;;2.87;2.30;;;22.70;70.30;;;;;;5033503;28;20520;-85
2023/10/17 02:59:03;;;;;;;2.27;2.17;;;22.80;69.50;;;;;;5033609;28;20500;-85
2023/10/17 03:01:31;;;;;;;2.37;2.17;;;22.70;69.30;;;;;;5033118;28;20956;-85
2023/10/17 03:03:59;;;;;;;2.60;2.40;;;22.70;69.40;;;;;;5033539;28;20526;-82
2023/10/17 03:06:26;;;;;;;2.13;1.97;;;22.80;69.50;;;;;;5033527;28;20525;-83
2023/10/17 03:09:00;;;;;;;2.70;2.50;;;22.70;69.30;;;;;;5033512;28;20434;-83
2023/10/17 03:11:35;;;;;;;1.97;1.87;;;22.70;69.30;;;;;;5033263;28;20446;-83
2023/10/17 03:14:10;;;;;;;2.33;2.13;;;22.70;69.40;;;;;;5033471;28;20438;-82
2023/10/17 03:16:40;;;;;;;2.63;2.43;;;22.70;69.30;;;;;;5033392;28;20448;-83
2023/10/17 03:19:12;;;;;;;2.37;2.27;;;22.70;70.10;;;;;;5033280;28;20478;-82
2023/10/17 03:21:43;;;;;;;2.40;2.20;;;22.70;69.20;;;;;;5033081;28;20438;-83
2023/10/17 03:24:12;;;;;;;4.23;2.40;;;22.70;69.30;;;;;;5033142;28;20509;-83
2023/10/17 03:26:39;;;;;;;2.50;2.30;;;22.70;69.30;;;;;;5033237;28;20442;-83
2023/10/17 03:29:18;;;;;;;2.07;1.97;;;22.70;69.30;;;;;;5033092;28;20485;-83
2023/10/17 03:31:48;;;;;;;2.07;1.87;;;22.70;70.20;;;;;;5033128;28;20504;-83
2023/10/17 03:34:21;;;;;;;2.43;2.23;;;22.70;69.20;;;;;;5033398;28;20497;-82
2023/10/17 03:36:49;;;;;;;2.20;2.00;;;22.70;69.20;;;;;;5033286;28;20474;-83
2023/10/17 03:39:21;;;;;;;1.93;1.73;;;22.70;69.20;;;;;;5033223;28;20481;-84
2023/10/17 03:41:49;;;;;;;2.20;2.00;;;22.70;69.20;;;;;;5032816;28;20446;-83
2023/10/17 03:44:16;;;;;;;1.97;1.87;;;22.70;69.30;;;;;;5033054;28;20496;-84
2023/10/17 03:46:48;;;;;;;2.27;2.07;;;22.70;69.30;;;;;;5032980;28;20440;-83
2023/10/17 03:49:18;;;;;;;2.17;1.97;;;22.70;69.30;;;;;;5027094;28;20800;-84
2023/10/17 03:51:52;;;;;;;2.40;2.20;;;22.70;69.20;;;;;;5032678;28;20530;-84
2023/10/17 03:54:22;;;;;;;2.30;2.10;;;22.70;69.30;;;;;;5032951;28;20438;-85
2023/10/17 03:56:55;;;;;;;2.30;1.87;;;22.70;69.30;;;;;;5032699;28;20438;-84
2023/10/17 03:59:37;;;;;;;2.17;2.00;;;22.70;69.20;;;;;;5032859;28;20533;-83
2023/10/17 04:02:05;;;;;;;2.00;1.90;;;22.70;69.30;;;;;;5027948;28;20546;-85
2023/10/17 04:04:45;;;;;;;2.40;2.20;;;22.60;69.20;;;;;;5032810;28;20446;-84
2023/10/17 04:07:12;;;;;;;1.90;1.73;;;22.70;69.20;;;;;;5032823;28;20445;-84
2023/10/17 04:09:52;;;;;;;2.43;2.23;;;22.70;69.30;;;;;;5032556;28;20477;-84
2023/10/17 04:12:21;;;;;;;2.20;2.00;;;22.60;69.20;;;;;;5016061;28;20447;-84
2023/10/17 04:14:58;;;;;;;1.80;1.70;;;22.60;69.30;;;;;;5012716;28;20557;-84
2023/10/17 04:17:29;;;;;;;2.43;1.90;;;22.70;69.40;;;;;;5013148;28;20509;-84
2023/10/17 04:20:09;;;;;;;2.37;2.17;;;22.60;69.20;;;;;;5012898;28;20498;-84
2023/10/17 04:22:38;;;;;;;1.50;1.40;;;22.70;69.30;;;;;;5031222;28;20450;-84
2023/10/17 04:25:19;;;;;;;2.50;2.30;;;22.60;69.20;;;;;;5034678;28;20485;-84
2023/10/17 04:27:46;;;;;;;1.93;1.83;;;22.60;69.20;;;;;;5036229;28;21031;-84
2023/10/17 04:30:15;;;;;;;1.90;1.80;;;22.60;69.20;;;;;;5037288;28;20472;-84
2023/10/17 04:32:42;;;;;;;2.30;2.10;;;22.60;69.20;;;;;;5031533;28;20485;-84
2023/10/17 04:35:12;;;;;;;2.20;2.00;;;22.60;69.50;;;;;;5034855;28;20457;-84
2023/10/17 04:37:44;;;;;;;2.20;2.00;;;22.70;69.20;;;;;;5036583;28;20470;-85
2023/10/17 04:40:37;;;;;;;3.03;2.13;;;22.70;69.80;;;;;;5035933;28;20486;-84
2023/10/17 04:43:43;;;;;;;3.03;1.90;;;22.70;69.20;;;;;;5030944;28;20485;-85
2023/10/17 04:45:58;;;;;;;1.80;1.70;;;22.70;69.20;;;;;;5018995;28;20484;-83
2023/10/17 04:48:34;;;;;;;1.90;1.80;;;22.70;69.50;;;;;;5021765;28;20442;-84
2023/10/17 04:51:12;;;;;;;1.90;1.80;;;22.70;70.10;;;;;;5035176;28;20199;-83
2023/10/17 04:53:47;;;;;;;1.90;1.80;;;22.70;69.30;;;;;;5034868;28;20875;-84
2023/10/17 04:56:16;;;;;;;2.17;1.93;;;22.70;70.20;;;;;;5034613;28;20513;-82
2023/10/17 04:58:48;;;;;;;2.60;2.20;;;22.70;70.30;;;;;;5034720;28;20525;-83
2023/10/17 05:01:34;;;;;;;2.73;1.90;;;22.70;69.60;;;;;;5034744;28;20803;-84
2023/10/17 05:04:13;;;;;;;6.20;1.90;;;22.70;69.70;;;;;;5034821;28;20446;-83
2023/10/17 06:18:40;;;;;;;2.80;2.50;;;22.50;70.00;;;;;;5014508;28;20419;-90
2023/10/17 06:21:07;;;;;;;3.23;2.23;;;22.50;70.00;;;;;;5014354;28;20447;-90
2023/10/17 06:32:06;;;;;;;5.03;2.60;;;22.50;70.00;;;;;;4960285;28;20446;-89
2023/10/17 06:34:33;;;;;;;5.63;2.73;;;22.50;69.90;;;;;;5034557;28;20446;-87
2023/10/17 06:37:00;;;;;;;3.20;2.57;;;22.60;70.00;;;;;;5033701;28;21019;-87
2023/10/17 06:39:36;;;;;;;3.00;2.63;;;22.50;69.80;;;;;;5034023;28;20508;-87
2023/10/17 06:42:13;;;;;;;2.57;2.37;;;22.50;69.80;;;;;;5033969;28;20429;-86
2023/10/17 06:44:53;;;;;;;2.87;2.07;;;22.50;69.80;;;;;;5033824;28;20446;-87
2023/10/17 06:47:22;;;;;;;3.30;2.63;;;22.50;69.80;;;;;;5032973;28;20451;-87
2023/10/17 06:52:40;;;;;;;2.63;2.43;;;22.50;69.80;;;;;;5033607;28;20524;-89
2023/10/17 06:55:08;;;;;;;5.63;2.70;;;22.50;69.80;;;;;;5033392;28;20446;-87
2023/10/17 06:57:36;;;;;;;3.20;2.20;;;22.50;70.60;;;;;;5033844;28;20454;-87
2023/10/17 07:00:16;;;;;;;2.50;2.20;;;22.50;69.80;;;;;;5033584;28;20918;-87
2023/10/17 07:02:48;;;;;;;2.27;2.07;;;22.50;69.70;;;;;;5033876;28;20428;-87
2023/10/17 07:05:21;;;;;;;2.60;2.40;;;22.50;69.70;;;;;;5033407;28;20446;-86
2023/10/17 07:07:52;;;;;;;3.17;1.60;;;22.50;69.60;;;;;;5033516;28;20835;-87
2023/10/17 07:10:24;;;;;;;4.00;2.37;;;22.50;69.60;;;;;;5033329;28;20476;-87
2023/10/17 07:13:31;;;;;;;3.20;2.60;;;22.50;69.50;;;;;;5033800;28;20849;-88
2023/10/17 07:16:04;;;;;;;3.40;2.23;;;22.50;69.60;;;;;;5013769;28;20449;-91
2023/10/17 07:18:47;;;;;;;2.47;2.27;;;22.50;70.00;;;;;;5013598;28;20542;-89
2023/10/17 07:21:17;;;;;;;3.03;2.73;;;22.50;69.60;;;;;;5013514;28;20453;-90
2023/10/17 07:23:48;;;;;;;3.23;2.70;;;22.50;69.60;;;;;;5013874;28;20465;-88
2023/10/17 07:26:17;;;;;;;3.60;2.47;;;22.50;69.50;;;;;;5013585;28;20446;-87
2023/10/17 07:28:44;;;;;;;2.23;2.03;;;22.50;69.50;;;;;;5013366;28;20978;-89
2023/10/17 07:31:13;;;;;;;2.10;1.70;;;22.50;69.40;;;;;;5013715;28;20438;-87
2023/10/17 07:33:43;;;;;;;3.77;1.80;;;22.50;69.50;;;;;;5013499;28;20427;-88
2023/10/17 07:36:13;;;;;;;2.30;2.00;;;22.50;69.30;;;;;;5031900;28;20513;-86
2023/10/17 07:38:43;;;;;;;2.47;2.27;;;22.50;69.40;;;;;;5033168;28;20454;-87
2023/10/17 07:41:13;;;;;;;2.70;2.50;;;22.50;69.30;;;;;;5033643;28;20430;-87
2023/10/17 07:43:43;;;;;;;2.47;1.80;;;22.60;69.50;;;;;;5033529;28;20426;-90
2023/10/17 07:46:18;;;;;;;2.67;2.30;;;22.60;69.50;;;;;;5033081;28;20762;-86
2023/10/17 07:48:48;;;;;;;2.37;2.13;;;22.60;69.50;;;;;;5033136;28;20433;-86
2023/10/17 07:51:16;;;;;;;2.50;2.30;;;22.60;69.40;;;;;;5033277;28;20439;-88
2023/10/17 07:53:45;;;;;;;4.40;2.00;;;22.60;69.60;;;;;;5032873;28;20540;-88
2023/10/17 07:56:20;;;;;;;1.97;1.77;;;22.60;69.40;;;;;;5033335;28;20438;-87
2023/10/17 07:58:56;;;;;;;2.37;2.17;;;22.60;69.60;;;;;;5034687;28;20462;-88
2023/10/17 08:01:31;;;;;;;2.60;1.93;;;22.60;69.40;;;;;;5037063;28;20433;-87
2023/10/17 08:04:13;;;;;;;2.50;2.30;;;22.60;69.10;;;;;;5036896;28;20444;-88
2023/10/17 08:06:40;;;;;;;2.70;2.50;;;22.70;68.90;;;;;;5036894;28;20541;-89
2023/10/17 08:09:18;;;;;;;2.20;2.00;;;22.70;68.40;;;;;;5036656;28;20596;-92
2023/10/17 08:11:46;;;;;;;2.77;2.57;;;22.80;68.30;;;;;;5036626;28;20429;-87
2023/10/17 08:14:16;;;;;;;1.93;1.83;;;22.80;68.10;;;;;;5036457;28;20540;-89
2023/10/17 08:16:48;;;;;;;2.77;2.20;;;22.80;67.70;;;;;;5037079;28;20434;-91
2023/10/17 08:19:15;;;;;;;2.87;2.40;;;22.90;67.50;;;;;;5036563;28;20470;-89
2023/10/17 08:21:49;;;;;;;2.20;2.10;;;23.00;67.40;;;;;;5036404;28;20442;-90
2023/10/17 08:24:23;;;;;;;8.40;2.03;;;23.10;67.00;;;;;;5036613;28;20450;-90
2023/10/17 08:27:12;;;;;;;2.83;2.07;;;23.30;66.90;;;;;;5037135;28;20433;-90
2023/10/17 08:29:37;;;;;;;3.63;1.83;;;23.50;66.70;;;;;;5031372;28;20443;-89
2023/10/17 08:32:20;;;;;;;2.23;2.03;;;23.40;66.50;;;;;;5018329;28;20438;-87
2023/10/17 08:34:48;;;;;;;2.30;2.10;;;23.50;66.20;;;;;;5036138;28;20448;-88
2023/10/17 08:37:27;;;;;;;2.70;1.97;;;23.70;65.80;;;;;;5036158;28;20453;-88
2023/10/17 08:39:52;;;;;;;2.50;2.30;;;23.80;65.70;;;;;;5036156;28;20511;-87
2023/10/17 08:42:30;;;;;;;2.27;2.07;;;24.10;65.40;;;;;;5036421;28;20809;-89
2023/10/17 08:44:58;;;;;;;2.30;2.10;;;24.20;65.10;;;;;;5036127;28;20211;-93
2023/10/17 08:47:30;;;;;;;2.43;1.90;;;24.40;65.20;;;;;;5036086;28;20442;-92
2023/10/17 08:50:00;;;;;;;2.87;1.93;;;24.60;64.90;;;;;;5036754;28;20445;-89
2023/10/17 08:52:28;;;;;;;3.27;2.00;;;24.70;64.00;;;;;;5036239;28;20443;-88
2023/10/17 08:54:55;;;;;;;2.30;2.10;;;25.10;64.00;;;;;;5036495;28;20534;-84
2023/10/17 08:57:22;;;;;;;2.03;1.93;;;25.20;63.60;;;;;;5035668;28;20566;-86
2023/10/17 09:02:43;;;;;;;3.10;1.60;;;25.70;63.20;;;;;;5033648;28;20509;-93
2023/10/17 09:05:17;;;;;;;3.43;2.00;;;25.80;62.80;;;;;;5033219;28;20952;-93
2023/10/17 09:07:46;;;;;;;2.00;1.90;;;25.90;62.60;;;;;;5020158;28;20447;-83
2023/10/17 09:10:18;;;;;;;2.37;1.70;;;25.80;62.70;;;;;;5022388;28;20526;-95
2023/10/17 09:13:14;;;;;;;2.43;2.03;;;25.80;62.80;;;;;;5015784;28;20919;-86
2023/10/17 09:15:48;;;;;;;2.10;1.90;;;25.70;62.90;;;;;;5015493;28;20963;-93
2023/10/17 09:18:26;;;;;;;1.97;1.70;;;25.70;62.90;;;;;;5015990;28;20785;-91
2023/10/17 09:20:55;;;;;;;2.17;1.97;;;26.00;62.60;;;;;;5015929;28;20518;-91
2023/10/17 09:23:23;;;;;;;1.70;1.60;;;26.30;62.10;;;;;;5016066;28;20841;-94
2023/10/17 09:25:56;;;;;;;2.40;1.80;;;26.60;61.40;;;;;;5033314;28;20525;-92
2023/10/17 09:28:24;;;;;;;1.93;1.73;;;26.90;61.00;;;;;;5035535;28;20465;-92
2023/10/17 09:30:58;;;;;;;2.07;1.90;;;27.30;60.50;;;;;;5035481;28;20454;-94
2023/10/17 09:33:31;;;;;;;2.60;1.50;;;27.50;60.00;;;;;;5035808;28;20984;-95
2023/10/17 09:35:59;;;;;;;2.50;1.50;;;27.80;59.70;;;;;;5035225;28;20523;-91
2023/10/17 09:38:26;;;;;;;3.90;1.70;;;28.00;59.40;;;;;;5016372;28;20813;-91
2023/10/17 09:40:55;;;;;;;1.87;1.77;;;28.30;59.10;;;;;;5015432;28;20491;-92
2023/10/17 09:43:21;;;;;;;2.23;1.50;;;28.60;58.60;;;;;;5015215;28;20443;-92
2023/10/17 09:45:52;;;;;;;1.83;1.63;;;28.90;58.40;;;;;;5015519;28;20443;-94
2023/10/17 09:48:29;;;;;;;1.83;1.73;;;29.00;58.00;;;;;;5016423;28;20435;-92
2023/10/17 09:51:01;;;;;;;1.73;1.30;;;29.10;58.00;;;;;;5015731;28;20453;-93
2023/10/17 09:53:32;;;;;;;1.97;1.67;;;29.20;57.80;;;;;;5014991;28;20428;-95
2023/10/17 09:56:01;;;;;;;2.73;1.63;;;29.30;57.60;;;;;;5015018;28;20427;-93
2023/10/17 09:58:31;;;;;;;1.90;1.70;;;29.20;57.80;;;;;;5015380;28;20465;-93
2023/10/17 10:01:05;;;;;;;1.67;1.50;;;29.00;58.00;;;;;;5015717;28;20487;-94
2023/10/17 10:03:35;;;;;;;1.67;1.57;;;28.90;58.30;;;;;;5015546;28;20435;-94
2023/10/17 10:06:25;;;;;;;1.57;1.43;;;28.90;58.30;;;;;;5015927;28;20443;-94
2023/10/17 10:08:56;;;;;;;1.60;1.40;;;28.60;58.60;;;;;;5011686;28;20951;-95
2023/10/17 10:11:55;;;;;;;1.60;1.47;;;28.50;59.60;;;;;;5015468;28;20479;-91
2023/10/17 10:14:39;;;;;;;2.10;1.90;;;28.20;59.40;;;;;;5013268;28;20482;-93
2023/10/17 10:17:08;;;;;;;1.60;1.50;;;28.20;60.50;;;;;;5034896;28;20457;-93
2023/10/17 10:19:59;;;;;;;1.83;1.57;;;27.90;60.00;;;;;;5034756;28;20442;-93
2023/10/17 10:22:56;;;;;;;1.60;1.50;;;27.70;60.70;;;;;;5034185;28;20434;-93
2023/10/17 10:25:23;;;;;;;1.37;1.20;;;27.30;61.50;;;;;;5034726;28;20510;-92
2023/10/17 10:28:26;;;;;;;1.60;1.50;;;27.10;62.20;;;;;;5034068;28;21031;-92
2023/10/17 10:30:53;;;;;;;1.50;1.30;;;26.90;62.90;;;;;;5034496;28;20445;-94
2023/10/17 10:33:21;;;;;;;1.83;1.63;;;26.80;63.10;;;;;;5034993;28;20488;-95
2023/10/17 10:35:48;;;;;;;1.60;1.40;;;26.60;63.60;;;;;;5049922;28;20422;-94
2023/10/17 10:38:17;;;;;;;2.17;1.40;;;26.50;63.90;;;;;;5047151;28;20524;-87
2023/10/17 10:40:44;;;;;;;3.30;1.60;;;26.40;64.20;;;;;;5034181;28;20996;-87
2023/10/17 10:43:11;;;;;;;1.30;1.20;;;26.40;64.40;;;;;;5051913;28;20441;-94
2023/10/17 10:45:42;;;;;;;1.40;1.30;;;26.30;64.70;;;;;;5054451;28;20461;-94
2023/10/17 10:48:14;;;;;;;2.00;1.10;;;26.30;64.80;;;;;;5054798;28;20785;-90
2023/10/17 10:50:42;;;;;;;1.73;1.30;;;26.30;65.00;;;;;;5053812;28;20487;-94
2023/10/17 10:53:21;;;;;;;2.00;1.33;;;26.30;65.00;;;;;;5053918;28;20536;-95
2023/10/17 10:55:55;;;;;;;1.60;1.50;;;26.20;65.10;;;;;;5067122;28;20440;-93
2023/10/17 10:58:22;;;;;;;2.90;1.43;;;26.20;65.60;;;;;;5059221;28;20454;-94
2023/10/17 11:00:49;;;;;;;1.67;1.57;;;26.20;65.80;;;;;;5054346;28;20480;-96
2023/10/17 11:03:17;;;;;;;3.03;1.23;;;26.20;66.00;;;;;;5054465;28;20446;-96
2023/10/17 11:05:54;;;;;;;1.60;1.43;;;26.10;66.10;;;;;;5054258;28;20951;-94
2023/10/17 11:08:24;;;;;;;1.50;1.33;;;26.10;66.30;;;;;;5054606;28;20445;-96
2023/10/17 11:10:51;;;;;;;6.50;1.67;;;26.20;66.40;;;;;;5036112;28;20482;-85
2023/10/17 11:13:18;;;;;;;1.63;1.37;;;26.20;65.50;;;;;;5033131;28;20453;-85
2023/10/17 11:15:45;;;;;;;1.53;1.27;;;26.20;65.00;;;;;;5033292;28;20466;-85
2023/10/17 11:18:12;;;;;;;2.40;1.20;;;26.00;65.00;;;;;;5033373;28;20841;-85
2023/10/17 11:20:41;;;;;;;1.90;1.60;;;26.00;65.60;;;;;;5033114;28;21087;-85
2023/10/17 11:23:11;;;;;;;2.27;1.30;;;25.90;65.30;;;;;;5032927;28;20933;-85
2023/10/17 11:25:44;;;;;;;1.60;1.50;;;25.90;65.50;;;;;;5033371;28;20517;-85
2023/10/17 11:28:11;;;;;;;1.40;1.03;;;25.80;65.50;;;;;;5033347;28;20466;-85
2023/10/17 11:35:50;;;;;;;1.67;1.20;;;25.80;66.90;;;;;;3099227;23;20477;-95
2023/10/17 11:38:33;;;;;;;1.83;1.47;;;25.80;67.00;;;;;;5044292;28;20442;-95
2023/10/17 11:41:02;;;;;;;1.50;1.10;;;25.90;67.10;;;;;;5050368;28;20552;-96
2023/10/17 11:43:33;;;;;;;1.80;1.50;;;25.90;67.20;;;;;;5056197;28;20454;-96
2023/10/17 11:51:16;;;;;;;1.30;1.20;;;25.90;67.40;;;;;;1363758;23;20476;-96
2023/10/17 11:54:03;;;;;;;2.20;1.20;;;26.00;67.50;;;;;;5062352;28;20433;-95
2023/10/17 11:56:32;;;;;;;1.20;1.00;;;26.00;67.50;;;;;;5068859;23;20449;-86
2023/10/17 11:59:01;;;;;;;2.23;1.30;;;26.00;67.60;;;;;;5041766;28;20458;-94
2023/10/17 12:01:27;;;;;;;1.10;1.00;;;26.00;67.70;;;;;;5056686;28;21065;-92
2023/10/17 12:03:56;;;;;;;2.40;1.27;;;26.10;67.40;;;;;;5057100;28;20938;-94
2023/10/17 12:06:26;;;;;;;1.80;1.60;;;26.00;63.40;;;;;;5057024;28;20471;-93
2023/10/17 12:08:53;;;;;;;1.40;1.20;;;25.90;65.70;;;;;;5056814;28;20444;-94
2023/10/17 12:11:20;;;;;;;2.17;1.20;;;25.90;65.90;;;;;;5057095;28;20933;-94
2023/10/17 12:13:48;;;;;;;1.83;0.97;;;25.80;65.80;;;;;;5056863;28;20441;-94
2023/10/17 12:16:17;;;;;;;7.47;1.40;;;25.80;65.80;;;;;;5057132;28;20441;-94
2023/10/17 12:18:44;;;;;;;1.83;1.17;;;25.80;65.70;;;;;;5056719;28;20441;-94
2023/10/17 12:21:14;;;;;;;2.60;1.20;;;25.70;65.50;;;;;;5056946;28;20523;-95
2023/10/17 12:23:41;;;;;;;4.40;1.10;;;25.70;65.50;;;;;;5056763;28;20473;-94
2023/10/17 12:26:13;;;;;;;2.23;1.00;;;25.70;65.20;;;;;;5056801;28;20468;-94
2023/10/17 12:28:50;;;;;;;1.70;1.50;;;25.60;65.20;;;;;;5056820;28;20440;-93
2023/10/17 12:31:17;;;;;;;1.40;1.30;;;25.60;65.00;;;;;;5058003;28;20464;-93
2023/10/17 12:33:45;;;;;;;2.00;1.23;;;25.70;63.90;;;;;;5056467;28;20491;-93
2023/10/17 12:36:13;;;;;;;1.37;1.00;;;25.50;64.50;;;;;;5056555;28;20947;-92
2023/10/17 12:38:40;;;;;;;1.40;1.27;;;25.50;64.40;;;;;;5056257;28;20449;-93
2023/10/17 12:41:07;;;;;;;1.40;1.27;;;25.60;64.40;;;;;;5056360;28;20481;-92
2023/10/17 12:43:35;;;;;;;1.40;1.20;;;25.60;64.40;;;;;;5056472;28;20441;-94
2023/10/17 12:46:03;;;;;;;1.30;0.97;;;25.60;64.40;;;;;;5055142;28;20449;-91
2023/10/17 12:48:30;;;;;;;1.40;0.87;;;25.60;64.60;;;;;;5055919;28;20540;-94
2023/10/17 12:50:57;;;;;;;1.80;1.20;;;25.70;64.80;;;;;;5055977;28;20445;-93
2023/10/17 12:53:23;;;;;;;1.13;0.90;;;25.60;64.80;;;;;;5056174;28;20437;-92
2023/10/17 12:55:50;;;;;;;3.57;1.20;;;25.70;65.10;;;;;;5055956;28;20437;-93
2023/10/17 12:58:22;;;;;;;1.53;1.23;;;25.80;65.10;;;;;;5056072;28;20457;-92
2023/10/17 13:00:50;;;;;;;3.70;2.10;;;25.80;65.10;;;;;;5055505;28;20465;-91
2023/10/17 13:03:19;;;;;;;2.90;2.30;;;25.80;61.30;;;;;;5055477;28;20936;-92
2023/10/17 13:05:48;;;;;;;2.20;2.00;;;25.80;58.80;;;;;;5055848;28;20438;-92
2023/10/17 13:08:15;;;;;;;2.20;1.83;;;25.70;57.50;;;;;;5055442;28;20442;-92
2023/10/17 13:10:42;;;;;;;2.17;1.97;;;25.50;57.00;;;;;;5055869;28;20545;-92
2023/10/17 13:13:10;;;;;;;2.23;2.03;;;25.60;56.70;;;;;;5055804;28;20441;-92
2023/10/17 13:15:37;;;;;;;2.40;1.97;;;25.40;56.40;;;;;;5055646;28;20437;-92
2023/10/17 13:18:07;;;;;;;2.20;1.70;;;25.20;56.20;;;;;;5055498;28;20440;-90
2023/10/17 13:20:35;;;;;;;4.53;1.83;;;25.20;56.20;;;;;;5055365;28;20441;-92
2023/10/17 13:23:04;;;;;;;2.23;1.80;;;25.10;56.20;;;;;;5055256;28;20456;-92
2023/10/17 13:25:35;;;;;;;2.27;1.80;;;25.00;56.30;;;;;;5055728;28;20472;-86
2023/10/17 13:28:02;;;;;;;2.63;2.43;;;24.90;56.10;;;;;;5055103;28;20465;-87
2023/10/17 13:30:29;;;;;;;2.50;1.80;;;24.80;56.00;;;;;;5055307;28;20491;-89
2023/10/17 13:32:56;;;;;;;1.83;1.63;;;24.70;56.00;;;;;;5055207;28;20444;-87
2023/10/17 13:35:24;;;;;;;1.50;1.20;;;24.70;56.00;;;;;;5055475;28;20448;-93
2023/10/17 13:37:52;;;;;;;2.37;1.97;;;24.60;56.80;;;;;;5055395;28;20925;-94
2023/10/17 13:40:21;;;;;;;3.00;1.30;;;24.50;59.60;;;;;;5055283;28;20536;-91
2023/10/17 13:42:50;;;;;;;2.07;1.20;;;24.40;59.70;;;;;;5055098;28;20496;-92
2023/10/17 13:45:17;;;;;;;1.50;1.03;;;24.40;60.40;;;;;;5055043;28;20448;-89
2023/10/17 13:47:44;;;;;;;3.77;1.93;;;24.40;60.90;;;;;;5054956;28;20441;-92
2023/10/17 13:50:13;;;;;;;1.90;1.20;;;24.40;61.00;;;;;;5054467;28;20443;-92
2023/10/17 13:52:41;;;;;;;1.50;1.00;;;24.40;61.20;;;;;;5045375;28;20449;-91
2023/10/17 13:55:13;;;;;;;1.10;1.00;;;24.40;61.30;;;;;;5054552;28;20448;-92
2023/10/17 13:57:42;;;;;;;1.30;1.20;;;24.40;61.60;;;;;;5054168;28;20485;-92
2023/10/17 14:00:18;;;;;;;1.27;1.10;;;24.40;61.70;;;;;;5054215;28;20855;-92
2023/10/17 14:02:46;;;;;;;5.60;0.90;;;24.40;61.70;;;;;;5053888;28;20575;-91
2023/10/17 14:05:13;;;;;;;1.70;1.03;;;24.40;61.80;;;;;;5054420;28;20429;-89
2023/10/17 14:07:41;;;;;;;1.80;0.90;;;24.40;61.90;;;;;;5054471;28;20433;-89
2023/10/17 14:10:11;;;;;;;1.10;0.90;;;24.50;62.20;;;;;;5054318;28;20448;-88
2023/10/17 14:12:41;;;;;;;1.50;1.30;;;24.40;62.20;;;;;;5054536;28;20445;-88
2023/10/17 14:15:08;;;;;;;1.33;0.90;;;24.40;62.30;;;;;;5054376;28;20449;-88
2023/10/17 14:17:35;;;;;;;1.60;1.07;;;24.40;62.40;;;;;;5055043;28;20445;-95
2023/10/17 14:20:06;;;;;;;1.40;1.00;;;24.40;62.40;;;;;;5054292;28;20603;-90
2023/10/17 14:22:44;;;;;;;1.10;1.00;;;24.40;62.50;;;;;;5054695;28;20479;-91
2023/10/17 14:25:13;;;;;;;1.60;1.30;;;24.40;62.60;;;;;;5054140;28;20433;-92
2023/10/17 14:27:39;;;;;;;1.53;1.10;;;24.40;62.70;;;;;;5054099;28;20454;-93
2023/10/17 14:30:06;;;;;;;1.10;1.00;;;24.40;62.80;;;;;;5053997;28;20460;-91
2023/10/17 14:32:32;;;;;;;1.30;1.20;;;24.30;62.70;;;;;;5054023;28;20438;-90
2023/10/17 14:34:59;;;;;;;1.40;1.10;;;24.40;62.80;;;;;;5054369;28;20755;-91
2023/10/17 14:37:27;;;;;;;1.60;1.10;;;24.30;62.80;;;;;;5053923;28;20206;-91
2023/10/17 14:39:54;;;;;;;1.33;1.20;;;24.30;63.00;;;;;;5053947;28;20446;-92
2023/10/17 14:42:23;;;;;;;1.53;1.03;;;24.30;63.10;;;;;;5054054;28;20500;-90
2023/10/17 14:44:52;;;;;;;1.40;1.20;;;24.30;64.00;;;;;;5057632;28;20456;-92
2023/10/17 14:47:19;;;;;;;1.20;0.97;;;24.30;63.20;;;;;;5054351;28;20472;-92